Time;durP1;ratioP1;P1;durP2;ratioP2;P2;SDS_P1;SDS_P2;PMS_P1;PMS_P2;Temp;Humidity;BMP_temperature;BMP_pressure;BME280_temperature;BME280_humidity;BME280_pressure;Samples;Min_cycle;Max_cycle;Signal;HPM_P1;HPM_P2
2023/07/28 00:02:19;;;;;;;3.47;1.52;;;20.80;99.90;;;;;;5038658;28;20052;-87
2023/07/28 00:04:45;;;;;;;4.22;1.45;;;20.80;99.90;;;;;;5039285;28;20032;-82
2023/07/28 00:07:10;;;;;;;4.85;1.80;;;20.80;99.90;;;;;;5056609;28;20033;-82
2023/07/28 00:09:36;;;;;;;5.88;1.80;;;20.80;99.90;;;;;;5038463;28;20383;-82
2023/07/28 00:12:02;;;;;;;1.83;1.40;;;20.80;99.90;;;;;;5038998;28;20032;-83
2023/07/28 00:14:28;;;;;;;2.70;1.77;;;20.80;99.90;;;;;;5056271;28;20355;-82
2023/07/28 00:16:55;;;;;;;1.63;1.50;;;20.80;99.90;;;;;;5056679;28;20029;-82
2023/07/28 00:19:21;;;;;;;2.13;1.55;;;20.80;99.90;;;;;;5056421;28;20033;-85
2023/07/28 00:21:48;;;;;;;2.65;1.45;;;20.70;99.90;;;;;;5056508;28;20115;-82
2023/07/28 00:24:14;;;;;;;3.75;1.63;;;20.70;99.90;;;;;;5056325;28;20462;-82
2023/07/28 00:26:39;;;;;;;2.90;1.33;;;20.70;99.90;;;;;;5038094;28;20056;-82
2023/07/28 00:29:07;;;;;;;2.80;1.70;;;20.70;99.90;;;;;;5038523;28;20068;-82
2023/07/28 00:31:33;;;;;;;3.00;1.60;;;20.70;99.90;;;;;;5038147;28;20473;-82
2023/07/28 00:33:59;;;;;;;3.35;1.58;;;20.70;99.90;;;;;;5056187;28;20025;-81
2023/07/28 00:36:24;;;;;;;2.45;1.30;;;20.70;99.90;;;;;;5055533;28;20044;-82
2023/07/28 00:38:50;;;;;;;3.70;1.80;;;20.70;99.90;;;;;;5038241;28;20450;-82
2023/07/28 00:41:16;;;;;;;3.90;1.75;;;20.70;99.90;;;;;;5038300;28;20024;-82
2023/07/28 00:43:42;;;;;;;2.45;1.63;;;20.70;99.90;;;;;;5037843;28;20492;-84
2023/07/28 00:46:09;;;;;;;3.58;1.45;;;20.70;99.90;;;;;;5038149;28;20119;-83
2023/07/28 00:48:35;;;;;;;3.17;1.80;;;20.70;99.90;;;;;;5037107;28;20029;-84
2023/07/28 00:51:00;;;;;;;2.42;1.58;;;20.60;99.90;;;;;;5037995;28;20031;-83
2023/07/28 00:53:27;;;;;;;2.55;1.88;;;20.60;99.90;;;;;;5037538;28;20481;-84
2023/07/28 00:55:52;;;;;;;2.85;1.70;;;20.60;99.90;;;;;;5037844;28;20051;-84
2023/07/28 00:58:18;;;;;;;2.42;1.83;;;20.70;99.90;;;;;;5037740;28;20033;-83
2023/07/28 01:00:44;;;;;;;2.72;1.33;;;20.70;99.90;;;;;;5037244;28;20057;-84
2023/07/28 01:03:10;;;;;;;2.35;1.58;;;20.70;99.90;;;;;;5037969;28;20098;-83
2023/07/28 01:05:59;;;;;;;4.32;1.50;;;20.60;99.90;;;;;;5037057;28;20409;-84
2023/07/28 01:08:34;;;;;;;2.08;1.63;;;20.60;99.90;;;;;;5037314;28;20033;-86
2023/07/28 01:10:59;;;;;;;1.60;1.48;;;20.60;99.90;;;;;;5055327;28;20025;-84
2023/07/28 01:13:25;;;;;;;2.40;1.42;;;20.60;99.90;;;;;;5037215;28;20466;-85
2023/07/28 01:15:50;;;;;;;1.90;1.42;;;20.60;99.90;;;;;;5037530;28;20597;-84
2023/07/28 01:18:16;;;;;;;3.97;1.48;;;20.60;99.90;;;;;;5055250;28;20131;-83
2023/07/28 01:20:45;;;;;;;3.05;1.83;;;20.60;99.90;;;;;;5036710;28;20619;-85
2023/07/28 01:23:26;;;;;;;2.63;1.58;;;20.60;99.90;;;;;;5055112;28;20362;-83
2023/07/28 01:26:05;;;;;;;4.63;1.77;;;20.60;99.90;;;;;;5037598;28;20600;-83
2023/07/28 01:28:34;;;;;;;3.95;1.80;;;20.50;99.90;;;;;;5036850;28;20033;-84
2023/07/28 01:31:02;;;;;;;9.77;5.70;;;20.60;99.90;;;;;;5037185;28;20548;-84
2023/07/28 01:33:29;;;;;;;14.43;7.20;;;20.60;99.90;;;;;;5036599;28;20025;-84
2023/07/28 01:35:54;;;;;;;7.90;5.13;;;20.50;99.90;;;;;;5037249;28;20031;-83
2023/07/28 01:38:20;;;;;;;2.78;1.90;;;20.50;99.90;;;;;;5037304;28;20399;-84
2023/07/28 01:40:45;;;;;;;2.75;1.70;;;20.50;99.90;;;;;;5054436;28;20025;-84
2023/07/28 01:43:11;;;;;;;4.28;2.85;;;20.50;99.90;;;;;;5055125;28;20113;-84
2023/07/28 01:45:37;;;;;;;2.95;1.95;;;20.40;99.90;;;;;;5036645;28;20036;-84
2023/07/28 01:48:02;;;;;;;2.90;1.63;;;20.40;99.90;;;;;;5037471;28;20029;-84
2023/07/28 01:50:28;;;;;;;3.47;1.73;;;20.40;99.90;;;;;;5036858;28;20040;-84
2023/07/28 01:52:55;;;;;;;5.50;1.95;;;20.40;99.90;;;;;;5037543;28;20460;-84
2023/07/28 01:55:20;;;;;;;2.50;1.58;;;20.40;99.90;;;;;;5037231;28;20029;-84
2023/07/28 01:58:00;;;;;;;1.90;1.45;;;20.30;99.90;;;;;;5054516;28;20159;-84
2023/07/28 02:00:26;;;;;;;2.20;1.52;;;20.30;99.90;;;;;;5036459;28;20084;-85
2023/07/28 02:02:52;;;;;;;1.83;1.27;;;20.30;99.90;;;;;;5037250;28;20123;-84
2023/07/28 02:05:18;;;;;;;2.33;1.70;;;20.30;99.90;;;;;;5036896;28;20037;-84
2023/07/28 02:07:44;;;;;;;2.67;1.27;;;20.30;99.90;;;;;;5036424;28;20260;-84
2023/07/28 02:10:10;;;;;;;1.63;1.23;;;20.30;99.90;;;;;;5036859;28;20119;-83
2023/07/28 02:12:36;;;;;;;3.47;1.50;;;20.30;99.90;;;;;;5036627;28;20025;-84
2023/07/28 02:15:02;;;;;;;2.88;1.60;;;20.30;99.90;;;;;;5036570;28;20123;-83
2023/07/28 02:17:28;;;;;;;2.60;1.58;;;20.30;99.90;;;;;;5036477;28;20064;-85
2023/07/28 02:19:53;;;;;;;3.17;1.50;;;20.20;99.90;;;;;;5036880;28;20386;-84
2023/07/28 02:22:19;;;;;;;1.83;1.40;;;20.20;99.90;;;;;;5036819;28;20025;-83
2023/07/28 02:24:45;;;;;;;2.25;1.23;;;20.20;99.90;;;;;;5036222;28;20021;-84
2023/07/28 02:27:10;;;;;;;2.35;1.33;;;20.30;99.90;;;;;;5036994;28;20037;-84
2023/07/28 02:29:36;;;;;;;2.63;1.50;;;20.30;99.90;;;;;;5054008;28;20584;-84
2023/07/28 02:32:01;;;;;;;1.85;1.30;;;20.30;99.90;;;;;;5037353;28;20025;-83
2023/07/28 02:34:27;;;;;;;3.28;1.38;;;20.20;99.90;;;;;;5036619;28;20083;-84
2023/07/28 02:36:52;;;;;;;1.92;1.30;;;20.20;99.90;;;;;;5036479;28;20039;-84
2023/07/28 02:39:18;;;;;;;2.30;1.30;;;20.20;99.90;;;;;;5036670;28;20497;-84
2023/07/28 02:41:44;;;;;;;2.50;1.65;;;20.20;99.90;;;;;;5036682;28;20115;-85
2023/07/28 02:44:10;;;;;;;2.53;1.40;;;20.20;99.90;;;;;;5054566;28;20029;-85
2023/07/28 02:46:36;;;;;;;2.00;1.40;;;20.20;99.90;;;;;;5036342;28;20029;-85
2023/07/28 02:49:03;;;;;;;3.88;1.30;;;20.20;99.90;;;;;;5036969;28;20029;-84
2023/07/28 02:51:29;;;;;;;1.52;1.10;;;20.20;99.90;;;;;;5036411;28;20025;-85
2023/07/28 02:53:55;;;;;;;2.13;1.13;;;20.10;99.90;;;;;;5036368;28;20489;-85
2023/07/28 02:56:21;;;;;;;4.03;1.50;;;20.10;99.90;;;;;;5036965;28;20029;-84
2023/07/28 02:58:48;;;;;;;3.50;1.50;;;20.10;99.90;;;;;;5035640;28;20032;-83
2023/07/28 03:01:13;;;;;;;2.60;1.65;;;20.10;99.90;;;;;;5036943;28;20025;-84
2023/07/28 03:03:39;;;;;;;3.10;1.50;;;20.10;99.90;;;;;;5036039;28;20485;-84
2023/07/28 03:06:05;;;;;;;2.72;1.67;;;20.10;99.90;;;;;;5053654;28;20420;-84
2023/07/28 03:08:30;;;;;;;3.38;2.38;;;20.10;99.90;;;;;;5036177;28;20033;-84
2023/07/28 03:11:02;;;;;;;2.83;1.65;;;20.00;99.90;;;;;;5036362;28;20025;-84
2023/07/28 03:13:28;;;;;;;3.45;1.98;;;20.10;99.90;;;;;;5039127;28;20036;-84
2023/07/28 03:15:53;;;;;;;2.08;1.33;;;20.00;99.90;;;;;;5040220;28;20482;-83
2023/07/28 03:18:19;;;;;;;3.40;1.52;;;20.00;99.90;;;;;;5040397;28;20029;-81
2023/07/28 03:20:46;;;;;;;2.40;1.40;;;20.00;99.90;;;;;;5057686;28;20474;-82
2023/07/28 03:23:12;;;;;;;5.72;1.65;;;20.00;99.90;;;;;;5057880;28;20378;-83
2023/07/28 03:25:37;;;;;;;1.67;1.30;;;20.00;99.90;;;;;;5057500;28;20039;-83
2023/07/28 03:28:03;;;;;;;1.98;1.48;;;19.90;99.90;;;;;;5040347;28;20382;-83
2023/07/28 03:30:28;;;;;;;2.05;1.42;;;19.90;99.90;;;;;;5057617;28;20466;-85
2023/07/28 03:32:54;;;;;;;2.67;1.70;;;19.90;99.90;;;;;;5039399;28;20421;-83
2023/07/28 03:35:20;;;;;;;2.33;1.65;;;19.90;99.90;;;;;;5057569;28;20040;-83
2023/07/28 03:37:45;;;;;;;2.63;1.73;;;19.80;99.90;;;;;;5039580;28;20050;-83
2023/07/28 03:40:11;;;;;;;3.40;1.50;;;19.80;99.90;;;;;;5057761;28;20064;-83
2023/07/28 03:42:37;;;;;;;4.35;1.85;;;19.80;99.90;;;;;;5039516;28;20063;-83
2023/07/28 03:45:03;;;;;;;3.28;1.60;;;19.80;99.90;;;;;;5039824;28;20029;-82
2023/07/28 03:47:28;;;;;;;2.80;1.60;;;19.80;99.90;;;;;;5039868;28;20118;-83
2023/07/28 03:49:54;;;;;;;2.47;1.60;;;19.80;99.90;;;;;;5039471;28;20032;-83
2023/07/28 03:52:19;;;;;;;1.58;1.10;;;19.70;99.90;;;;;;5039705;28;20112;-82
2023/07/28 03:54:45;;;;;;;1.85;1.50;;;19.80;99.90;;;;;;5039368;28;20048;-83
2023/07/28 03:57:11;;;;;;;2.67;1.67;;;19.80;99.90;;;;;;5039323;28;20025;-83
2023/07/28 03:59:36;;;;;;;3.22;1.63;;;19.80;99.90;;;;;;5038982;28;20083;-84
2023/07/28 04:02:02;;;;;;;2.38;1.50;;;19.70;99.90;;;;;;5057202;28;20033;-82
2023/07/28 04:04:28;;;;;;;3.22;1.75;;;19.70;99.90;;;;;;5039165;28;20025;-83
2023/07/28 04:06:53;;;;;;;3.58;1.90;;;19.60;99.90;;;;;;5038739;28;20025;-83
2023/07/28 04:09:19;;;;;;;4.07;1.65;;;19.60;99.90;;;;;;5051311;28;20461;-84
2023/07/28 04:11:45;;;;;;;2.78;1.80;;;19.60;99.90;;;;;;5076433;28;20025;-84
2023/07/28 04:14:11;;;;;;;2.88;1.85;;;19.60;99.90;;;;;;5059218;28;20031;-84
2023/07/28 04:16:36;;;;;;;4.32;2.15;;;19.60;99.90;;;;;;5058355;28;20032;-84
2023/07/28 04:19:02;;;;;;;2.90;1.55;;;19.60;99.90;;;;;;5059260;28;20021;-84
2023/07/28 04:21:28;;;;;;;3.55;1.92;;;19.50;99.90;;;;;;5059381;28;20021;-84
2023/07/28 04:23:53;;;;;;;2.67;1.83;;;19.50;99.90;;;;;;5075472;28;20108;-82
2023/07/28 04:26:19;;;;;;;2.55;1.90;;;19.50;99.90;;;;;;5058980;28;20171;-83
2023/07/28 04:28:45;;;;;;;2.97;1.90;;;19.50;99.90;;;;;;5075897;28;20043;-83
2023/07/28 04:31:11;;;;;;;2.80;1.70;;;19.50;99.90;;;;;;5058838;28;20024;-83
2023/07/28 04:33:38;;;;;;;2.35;1.60;;;19.50;99.90;;;;;;5057808;28;20170;-84
2023/07/28 04:36:04;;;;;;;3.47;1.85;;;19.50;99.90;;;;;;5075381;28;20029;-83
2023/07/28 04:38:29;;;;;;;3.03;1.65;;;19.50;99.90;;;;;;5058806;28;20027;-82
2023/07/28 04:40:55;;;;;;;2.88;1.90;;;19.50;99.90;;;;;;5057421;28;20112;-83
2023/07/28 04:43:20;;;;;;;3.58;1.75;;;19.50;99.90;;;;;;5049679;28;20731;-85
2023/07/28 04:45:46;;;;;;;1.90;1.50;;;19.50;99.90;;;;;;5032097;28;20037;-83
2023/07/28 04:48:11;;;;;;;2.67;1.73;;;19.50;99.90;;;;;;5038364;28;20462;-83
2023/07/28 04:50:37;;;;;;;3.53;1.73;;;19.50;99.90;;;;;;5037766;28;20476;-86
2023/07/28 04:53:03;;;;;;;2.85;1.83;;;19.50;99.90;;;;;;5037776;28;20032;-82
2023/07/28 04:55:29;;;;;;;4.07;1.88;;;19.40;99.90;;;;;;5055909;28;20032;-82
2023/07/28 04:57:55;;;;;;;2.67;1.73;;;19.50;99.90;;;;;;5055316;28;20111;-83
2023/07/28 05:00:22;;;;;;;3.28;2.15;;;19.40;99.90;;;;;;5038205;28;20049;-83
2023/07/28 05:02:47;;;;;;;2.33;2.03;;;19.40;99.90;;;;;;5052439;28;20059;-82
2023/07/28 05:05:13;;;;;;;3.67;1.67;;;19.40;99.90;;;;;;5037494;28;20033;-81
2023/07/28 05:07:38;;;;;;;3.40;1.92;;;19.40;99.90;;;;;;5037010;28;20120;-82
2023/07/28 05:10:04;;;;;;;3.85;2.10;;;19.40;99.90;;;;;;5037676;28;20470;-83
2023/07/28 05:12:30;;;;;;;4.25;2.30;;;19.30;99.90;;;;;;5037758;28;20029;-82
2023/07/28 05:14:55;;;;;;;2.58;2.00;;;19.30;99.90;;;;;;5036502;28;20031;-82
2023/07/28 05:17:21;;;;;;;3.10;1.92;;;19.40;99.90;;;;;;5038086;28;20025;-82
2023/07/28 05:19:49;;;;;;;3.20;1.85;;;19.40;99.90;;;;;;5037021;28;20079;-82
2023/07/28 05:22:15;;;;;;;2.42;1.80;;;19.30;99.90;;;;;;5055344;28;20025;-82
2023/07/28 05:24:40;;;;;;;3.53;1.80;;;19.30;99.90;;;;;;5036869;28;20036;-82
2023/07/28 05:27:06;;;;;;;2.83;1.67;;;19.30;99.90;;;;;;5055265;28;20036;-82
2023/07/28 05:29:31;;;;;;;3.63;1.77;;;19.40;99.90;;;;;;5037437;28;20078;-82
2023/07/28 05:31:59;;;;;;;2.85;1.70;;;19.40;99.90;;;;;;5037143;28;20135;-82
2023/07/28 05:34:25;;;;;;;3.42;1.80;;;19.30;99.90;;;;;;5037050;28;20075;-83
2023/07/28 05:36:50;;;;;;;4.65;1.85;;;19.30;99.90;;;;;;5036642;28;20025;-82
2023/07/28 05:39:16;;;;;;;2.47;1.42;;;19.30;99.90;;;;;;5054968;28;20458;-82
2023/07/28 05:41:42;;;;;;;1.92;1.50;;;19.30;99.90;;;;;;5037336;28;20074;-82
2023/07/28 05:44:07;;;;;;;1.67;1.30;;;19.20;99.90;;;;;;5054839;28;20043;-82
2023/07/28 05:46:33;;;;;;;3.03;1.48;;;19.20;99.90;;;;;;5036229;28;20039;-82
2023/07/28 05:48:59;;;;;;;2.30;1.23;;;19.30;99.90;;;;;;5036637;28;20040;-81
2023/07/28 05:51:25;;;;;;;3.67;1.23;;;19.20;99.90;;;;;;5055250;28;20025;-81
2023/07/28 05:53:51;;;;;;;2.13;0.98;;;19.20;99.90;;;;;;5036720;28;20049;-82
2023/07/28 05:56:18;;;;;;;1.45;0.98;;;19.20;99.90;;;;;;5037246;28;20140;-82
2023/07/28 05:58:45;;;;;;;1.58;1.00;;;19.20;99.90;;;;;;5036184;28;20025;-82
2023/07/28 06:01:10;;;;;;;2.45;1.20;;;19.10;99.90;;;;;;5037860;28;20128;-82
2023/07/28 06:03:36;;;;;;;1.17;1.00;;;19.10;99.90;;;;;;5037017;28;20442;-84
2023/07/28 06:06:02;;;;;;;2.78;1.05;;;19.10;99.90;;;;;;5037075;28;20033;-81
2023/07/28 06:08:28;;;;;;;1.27;0.88;;;19.10;99.90;;;;;;5053236;28;20037;-81
2023/07/28 06:10:53;;;;;;;1.45;1.10;;;19.10;99.90;;;;;;5054089;28;20032;-82
2023/07/28 06:13:19;;;;;;;2.65;1.30;;;19.10;99.90;;;;;;5054061;28;20025;-83
2023/07/28 06:15:45;;;;;;;1.67;0.82;;;19.10;99.90;;;;;;5053554;28;20044;-83
2023/07/28 06:18:10;;;;;;;2.47;0.80;;;19.10;99.90;;;;;;5036421;28;20473;-81
2023/07/28 06:20:36;;;;;;;1.85;0.73;;;19.10;99.90;;;;;;5053918;28;20029;-84
2023/07/28 06:23:02;;;;;;;1.98;0.80;;;19.10;99.90;;;;;;5053917;28;20025;-83
2023/07/28 06:25:28;;;;;;;2.42;1.00;;;19.10;99.90;;;;;;5035442;28;20077;-82
2023/07/28 06:27:54;;;;;;;1.65;1.17;;;19.10;99.90;;;;;;5034657;28;20481;-80
2023/07/28 06:30:20;;;;;;;1.45;0.95;;;19.10;99.90;;;;;;5035844;28;20117;-81
2023/07/28 06:32:46;;;;;;;1.45;0.80;;;19.20;99.90;;;;;;5035309;28;20025;-81
2023/07/28 06:35:11;;;;;;;1.63;0.82;;;19.20;99.90;;;;;;5036008;28;20128;-81
2023/07/28 06:37:37;;;;;;;1.58;0.70;;;19.20;99.90;;;;;;5036015;28;20087;-84
2023/07/28 06:40:09;;;;;;;1.15;0.80;;;19.30;99.90;;;;;;5049130;28;20096;-82
2023/07/28 06:42:35;;;;;;;2.85;1.20;;;19.30;99.90;;;;;;5016503;28;20029;-81
2023/07/28 06:45:01;;;;;;;1.38;0.88;;;19.30;99.90;;;;;;5036532;28;20056;-81
2023/07/28 06:47:27;;;;;;;1.98;1.33;;;19.40;99.90;;;;;;5063544;28;20147;-80
2023/07/28 06:49:52;;;;;;;1.85;1.48;;;19.40;99.90;;;;;;5053523;28;20478;-81
2023/07/28 06:52:18;;;;;;;2.13;1.40;;;19.40;99.90;;;;;;5036267;28;20033;-82
2023/07/28 06:54:43;;;;;;;1.85;1.38;;;19.50;99.90;;;;;;5035958;28;20028;-82
2023/07/28 06:57:09;;;;;;;2.13;1.10;;;19.50;99.90;;;;;;5053965;28;20036;-82
2023/07/28 06:59:34;;;;;;;1.48;1.13;;;19.50;99.90;;;;;;5035873;28;20076;-82
2023/07/28 07:02:00;;;;;;;1.33;0.90;;;19.60;99.90;;;;;;5035755;28;20029;-81
2023/07/28 07:04:26;;;;;;;1.38;0.88;;;19.60;99.90;;;;;;5036254;28;20025;-82
2023/07/28 07:06:51;;;;;;;1.17;0.88;;;19.70;99.90;;;;;;5053371;28;20065;-82
2023/07/28 07:09:17;;;;;;;2.15;0.60;;;19.70;99.90;;;;;;5052739;28;20037;-82
2023/07/28 07:11:42;;;;;;;1.70;0.70;;;19.70;99.90;;;;;;5035450;28;20033;-84
2023/07/28 07:14:08;;;;;;;3.70;0.90;;;19.70;99.90;;;;;;5035824;28;20031;-83
2023/07/28 07:16:34;;;;;;;1.83;0.93;;;19.70;99.90;;;;;;5035668;28;20474;-81
2023/07/28 07:18:59;;;;;;;0.93;0.65;;;19.70;99.90;;;;;;5035294;28;20061;-83
2023/07/28 07:21:27;;;;;;;1.17;0.75;;;19.70;99.90;;;;;;5052657;28;20071;-82
2023/07/28 07:23:52;;;;;;;0.68;0.50;;;19.80;99.90;;;;;;5035378;28;20079;-83
2023/07/28 07:26:18;;;;;;;3.67;1.00;;;19.80;99.90;;;;;;5035630;28;20029;-83
2023/07/28 07:28:43;;;;;;;2.20;0.95;;;19.80;99.90;;;;;;5051794;28;20436;-82
2023/07/28 07:31:13;;;;;;;2.00;0.80;;;19.90;99.90;;;;;;5035699;28;20458;-81
2023/07/28 07:33:39;;;;;;;0.77;0.50;;;19.90;99.90;;;;;;5034991;28;20025;-84
2023/07/28 07:36:05;;;;;;;1.20;0.60;;;19.90;99.90;;;;;;5035267;28;20037;-81
2023/07/28 07:38:30;;;;;;;1.83;1.10;;;20.00;99.90;;;;;;5052509;28;20113;-83
2023/07/28 07:40:56;;;;;;;2.72;0.73;;;20.10;99.90;;;;;;5035538;28;20028;-83
2023/07/28 07:43:22;;;;;;;1.65;0.98;;;20.10;99.90;;;;;;5035932;28;20025;-82
2023/07/28 07:45:49;;;;;;;2.35;0.75;;;20.10;99.90;;;;;;5052774;28;20097;-83
2023/07/28 07:48:15;;;;;;;1.70;0.90;;;20.10;99.90;;;;;;5034946;28;20028;-82
2023/07/28 07:50:41;;;;;;;1.45;0.70;;;20.20;99.90;;;;;;5034886;28;20458;-84
2023/07/28 07:53:06;;;;;;;1.30;0.70;;;20.30;99.90;;;;;;5053328;28;20029;-82
2023/07/28 07:55:32;;;;;;;0.70;0.70;;;20.40;99.90;;;;;;5035623;28;20040;-82
2023/07/28 07:57:58;;;;;;;0.77;0.68;;;20.40;99.90;;;;;;5035800;28;20111;-81
2023/07/28 08:00:26;;;;;;;1.50;0.60;;;20.40;99.90;;;;;;5055720;28;20139;-81
2023/07/28 08:02:51;;;;;;;2.80;0.70;;;20.40;99.90;;;;;;5039069;28;20028;-82
2023/07/28 08:05:17;;;;;;;7.25;0.90;;;20.50;99.90;;;;;;5038922;28;20398;-81
2023/07/28 08:07:44;;;;;;;1.42;0.65;;;20.50;99.90;;;;;;5038797;28;20052;-83
2023/07/28 08:10:09;;;;;;;3.55;0.80;;;20.50;99.90;;;;;;5056696;28;20124;-82
2023/07/28 08:12:35;;;;;;;2.65;1.08;;;20.50;99.90;;;;;;5039235;28;20453;-82
2023/07/28 08:15:01;;;;;;;3.05;1.08;;;20.70;99.90;;;;;;5038541;28;20413;-81
2023/07/28 08:17:26;;;;;;;1.33;0.90;;;20.70;99.90;;;;;;5039458;28;20092;-83
2023/07/28 08:19:52;;;;;;;1.55;1.00;;;20.70;99.90;;;;;;5056130;28;20466;-82
2023/07/28 08:22:18;;;;;;;1.00;0.80;;;20.90;99.90;;;;;;5038884;28;20069;-83
2023/07/28 08:24:43;;;;;;;1.48;0.88;;;20.90;99.90;;;;;;5055845;28;20021;-83
2023/07/28 08:27:09;;;;;;;1.83;1.00;;;21.00;99.90;;;;;;5038746;28;20025;-83
2023/07/28 08:29:35;;;;;;;1.98;0.77;;;21.00;99.90;;;;;;5038554;28;20493;-80
2023/07/28 08:32:00;;;;;;;2.40;1.00;;;21.00;99.90;;;;;;5038168;28;20074;-82
2023/07/28 08:34:27;;;;;;;3.35;0.80;;;21.00;99.90;;;;;;5038628;28;20484;-82
2023/07/28 08:36:52;;;;;;;2.10;0.90;;;21.10;99.90;;;;;;5054140;28;20514;-81
2023/07/28 08:39:18;;;;;;;3.90;1.00;;;21.10;99.90;;;;;;5055444;28;20129;-82
2023/07/28 08:41:44;;;;;;;2.13;0.80;;;21.10;99.90;;;;;;5037061;28;20036;-80
2023/07/28 08:44:09;;;;;;;1.10;0.93;;;21.10;99.90;;;;;;5038082;28;20477;-79
2023/07/28 08:46:35;;;;;;;1.33;1.10;;;21.10;99.90;;;;;;5055609;28;20041;-80
2023/07/28 08:49:01;;;;;;;1.85;1.00;;;21.20;99.90;;;;;;5036395;28;20053;-80
2023/07/28 08:51:27;;;;;;;1.20;1.02;;;21.30;99.90;;;;;;5037558;28;20028;-78
2023/07/28 08:53:53;;;;;;;1.00;0.90;;;21.30;99.90;;;;;;5044527;28;20021;-79
2023/07/28 08:56:18;;;;;;;1.60;0.95;;;21.30;99.90;;;;;;5037730;28;20017;-80
2023/07/28 08:58:44;;;;;;;3.38;1.02;;;21.30;99.90;;;;;;5036796;28;20029;-79
2023/07/28 09:01:11;;;;;;;3.05;0.80;;;21.20;99.90;;;;;;5036940;28;20079;-78
2023/07/28 09:03:41;;;;;;;3.03;1.00;;;21.10;99.90;;;;;;5037373;28;20029;-79
2023/07/28 09:06:09;;;;;;;1.58;0.90;;;21.20;99.90;;;;;;5037014;28;20060;-79
2023/07/28 09:08:36;;;;;;;2.13;1.17;;;21.20;99.90;;;;;;5054964;28;20025;-80
2023/07/28 09:11:04;;;;;;;4.22;1.20;;;21.30;99.90;;;;;;5036375;28;20055;-80
2023/07/28 09:13:37;;;;;;;1.40;0.90;;;21.30;99.90;;;;;;5055446;28;20043;-80
2023/07/28 09:16:03;;;;;;;1.27;1.02;;;21.30;99.90;;;;;;5037281;28;20064;-78
2023/07/28 09:18:29;;;;;;;2.63;1.05;;;21.50;99.90;;;;;;5037314;28;20090;-79
2023/07/28 09:20:55;;;;;;;1.55;1.00;;;21.60;99.90;;;;;;5054814;28;20025;-79
2023/07/28 09:23:28;;;;;;;1.35;0.80;;;21.70;99.90;;;;;;5055101;28;20025;-79
2023/07/28 09:26:01;;;;;;;1.73;0.95;;;21.80;99.90;;;;;;5054507;28;20025;-79
2023/07/28 09:28:41;;;;;;;2.38;1.00;;;21.80;99.90;;;;;;5017776;28;20037;-78
2023/07/28 09:31:07;;;;;;;1.77;1.30;;;21.80;99.90;;;;;;5017832;28;20147;-81
2023/07/28 09:33:34;;;;;;;2.08;1.38;;;21.60;99.90;;;;;;5028623;28;20119;-80
2023/07/28 09:36:12;;;;;;;2.80;1.30;;;21.60;99.90;;;;;;5036826;28;20025;-82
2023/07/28 09:38:40;;;;;;;2.15;1.40;;;21.60;99.90;;;;;;5054285;28;20021;-81
2023/07/28 09:41:09;;;;;;;1.50;0.90;;;21.60;99.90;;;;;;5053457;28;20190;-81
2023/07/28 09:43:39;;;;;;;2.65;1.30;;;21.50;99.90;;;;;;5036207;28;20385;-83
2023/07/28 09:46:07;;;;;;;2.35;1.10;;;21.50;99.90;;;;;;5036213;28;20025;-85
2023/07/28 09:48:33;;;;;;;1.90;1.08;;;21.50;99.90;;;;;;5036380;28;20032;-81
2023/07/28 09:51:12;;;;;;;2.85;1.13;;;21.70;99.90;;;;;;5035336;28;20064;-83
2023/07/28 09:53:48;;;;;;;1.33;1.10;;;21.80;99.90;;;;;;5053385;28;20029;-79
2023/07/28 09:56:19;;;;;;;2.67;1.05;;;22.00;99.90;;;;;;5035719;28;20025;-81
2023/07/28 09:58:52;;;;;;;3.03;1.30;;;22.10;99.90;;;;;;5052748;28;20036;-80
2023/07/28 10:01:19;;;;;;;2.28;1.13;;;22.20;99.90;;;;;;5035784;28;20091;-81
2023/07/28 10:03:46;;;;;;;2.03;1.35;;;22.20;99.90;;;;;;5052554;28;20033;-81
2023/07/28 10:06:13;;;;;;;1.65;1.30;;;22.30;99.90;;;;;;5053474;28;20029;-81
2023/07/28 10:08:40;;;;;;;2.00;1.17;;;22.50;99.90;;;;;;5035649;28;20059;-78
2023/07/28 10:11:06;;;;;;;1.60;1.30;;;22.60;99.90;;;;;;5035529;28;20520;-81
2023/07/28 10:13:44;;;;;;;2.75;1.00;;;22.70;99.90;;;;;;5035096;28;20040;-82
2023/07/28 10:16:10;;;;;;;2.45;1.00;;;22.50;99.90;;;;;;5036191;28;20389;-81
2023/07/28 10:18:36;;;;;;;2.40;1.20;;;22.40;99.90;;;;;;5035342;28;20033;-81
2023/07/28 10:21:08;;;;;;;2.83;1.35;;;22.30;99.90;;;;;;5052245;28;20021;-81
2023/07/28 10:23:37;;;;;;;1.98;1.25;;;22.30;99.90;;;;;;5053292;28;20025;-81
2023/07/28 10:26:06;;;;;;;5.47;1.40;;;22.30;99.90;;;;;;5034931;28;20025;-81
2023/07/28 10:28:38;;;;;;;1.63;0.82;;;22.30;99.90;;;;;;5034934;28;20043;-81
2023/07/28 10:31:06;;;;;;;1.10;0.93;;;22.30;99.90;;;;;;5053023;28;20032;-81
2023/07/28 10:33:45;;;;;;;1.92;1.00;;;22.20;99.90;;;;;;5035277;28;20037;-81
2023/07/28 10:36:23;;;;;;;3.85;1.20;;;22.30;99.90;;;;;;5035964;28;20029;-81
2023/07/28 10:39:16;;;;;;;2.33;1.33;;;22.30;99.90;;;;;;5041479;28;20060;-80
2023/07/28 10:42:03;;;;;;;3.22;1.40;;;22.30;99.90;;;;;;5034877;28;20482;-76
2023/07/28 10:44:29;;;;;;;1.70;1.00;;;22.50;99.90;;;;;;5035273;28;20025;-81
2023/07/28 10:46:55;;;;;;;2.75;0.90;;;22.60;99.90;;;;;;5052307;28;20036;-80
2023/07/28 10:49:20;;;;;;;2.10;1.08;;;22.70;99.90;;;;;;5052562;28;20029;-81
2023/07/28 10:51:46;;;;;;;1.58;0.80;;;22.70;99.90;;;;;;5032844;28;20021;-81
2023/07/28 10:54:15;;;;;;;3.28;1.08;;;22.60;99.90;;;;;;5052848;28;20032;-81
2023/07/28 10:56:41;;;;;;;1.45;0.98;;;22.60;99.90;;;;;;5034893;28;20029;-78
2023/07/28 10:59:07;;;;;;;1.55;1.23;;;22.60;99.90;;;;;;5052274;28;20048;-81
2023/07/28 11:01:37;;;;;;;1.63;1.23;;;22.50;99.90;;;;;;5053022;28;20370;-81
2023/07/28 11:04:17;;;;;;;3.15;1.40;;;22.60;99.90;;;;;;5051159;28;20052;-81
2023/07/28 11:06:47;;;;;;;4.63;1.60;;;22.60;99.90;;;;;;5034398;28;20056;-79
2023/07/28 11:09:16;;;;;;;2.88;1.25;;;22.60;99.90;;;;;;5052698;28;20037;-81
2023/07/28 11:11:42;;;;;;;3.95;2.28;;;22.60;99.90;;;;;;5051478;28;20033;-79
2023/07/28 11:14:09;;;;;;;6.55;3.33;;;22.60;99.90;;;;;;5052709;28;20082;-82
2023/07/28 11:16:41;;;;;;;6.97;4.80;;;22.70;99.90;;;;;;5052738;28;20458;-81
2023/07/28 11:19:11;;;;;;;2.35;1.73;;;22.80;99.90;;;;;;5052146;28;20055;-81
2023/07/28 11:21:37;;;;;;;1.52;1.17;;;22.90;99.90;;;;;;5052712;28;20040;-81
2023/07/28 11:24:04;;;;;;;1.50;1.20;;;22.80;99.90;;;;;;5051868;28;20040;-81
2023/07/28 11:26:30;;;;;;;2.47;1.10;;;22.70;99.90;;;;;;5052375;28;20525;-81
2023/07/28 11:28:56;;;;;;;2.05;1.05;;;22.70;99.90;;;;;;5050337;28;20068;-80
2023/07/28 11:31:27;;;;;;;1.90;1.27;;;22.80;99.90;;;;;;5034736;28;20029;-82
2023/07/28 11:33:53;;;;;;;4.38;1.40;;;22.70;99.90;;;;;;5053294;28;20057;-81
2023/07/28 11:36:27;;;;;;;2.55;1.13;;;22.80;99.90;;;;;;5056374;28;20067;-81
2023/07/28 11:38:54;;;;;;;3.25;1.33;;;22.80;99.90;;;;;;5055385;28;20070;-80
2023/07/28 11:41:21;;;;;;;2.45;1.25;;;22.70;99.90;;;;;;5056206;28;20032;-80
2023/07/28 11:43:50;;;;;;;1.98;1.80;;;22.70;99.90;;;;;;5037823;28;20482;-81
2023/07/28 11:46:36;;;;;;;2.85;1.40;;;22.60;99.90;;;;;;5038628;28;20037;-80
2023/07/28 11:49:11;;;;;;;1.58;1.20;;;22.50;99.90;;;;;;5043667;28;20025;-81
2023/07/28 11:51:43;;;;;;;2.15;1.40;;;22.40;99.90;;;;;;5055601;28;20035;-81
2023/07/28 11:54:13;;;;;;;2.78;1.50;;;22.30;99.90;;;;;;5037628;28;20033;-80
2023/07/28 11:56:44;;;;;;;3.17;1.63;;;22.20;99.90;;;;;;5039115;28;20078;-81
2023/07/28 11:59:11;;;;;;;3.13;1.75;;;22.10;99.90;;;;;;5038069;28;20048;-81
2023/07/28 12:01:57;;;;;;;3.45;1.70;;;22.10;99.90;;;;;;5038358;28;20033;-80
2023/07/28 12:04:37;;;;;;;3.08;1.48;;;22.10;99.90;;;;;;5054507;28;20032;-81
2023/07/28 12:07:06;;;;;;;5.47;1.58;;;22.20;99.90;;;;;;5055288;28;20112;-79
2023/07/28 12:10:20;;;;;;;1.83;1.08;;;22.20;99.90;;;;;;5038506;28;20497;-81
2023/07/28 12:12:47;;;;;;;3.53;1.35;;;22.20;99.90;;;;;;5050994;28;20025;-80
2023/07/28 12:15:28;;;;;;;3.28;1.50;;;22.10;99.90;;;;;;5025565;28;20028;-80
2023/07/28 12:18:13;;;;;;;2.28;1.45;;;22.10;99.90;;;;;;5037495;28;20020;-81
2023/07/28 12:20:47;;;;;;;2.17;1.35;;;22.10;99.90;;;;;;5038057;28;20032;-80
2023/07/28 12:23:15;;;;;;;2.83;2.00;;;22.00;99.90;;;;;;5056006;28;20025;-80
2023/07/28 12:25:41;;;;;;;2.38;1.63;;;21.90;99.90;;;;;;5055342;28;20025;-81
2023/07/28 12:28:07;;;;;;;1.83;1.45;;;21.80;99.90;;;;;;5037102;28;20052;-81
2023/07/28 12:30:33;;;;;;;2.38;1.55;;;21.80;99.90;;;;;;5037274;28;20033;-80
2023/07/28 12:33:00;;;;;;;3.17;1.45;;;21.70;99.90;;;;;;5037148;28;20052;-82
2023/07/28 12:35:26;;;;;;;3.05;1.90;;;21.60;99.90;;;;;;5037552;28;20033;-80
2023/07/28 12:37:52;;;;;;;2.78;1.50;;;21.60;99.90;;;;;;5039877;28;20466;-81
2023/07/28 12:40:21;;;;;;;2.22;1.60;;;21.50;99.90;;;;;;5059871;28;20029;-79
2023/07/28 12:42:47;;;;;;;2.75;1.70;;;21.40;99.90;;;;;;5054290;28;20021;-80
2023/07/28 12:45:14;;;;;;;3.05;1.50;;;21.40;99.90;;;;;;5036997;28;20036;-81
2023/07/28 12:47:40;;;;;;;2.53;1.67;;;21.40;99.90;;;;;;5037410;28;20037;-81
2023/07/28 12:50:06;;;;;;;3.00;1.48;;;21.40;99.90;;;;;;5042321;28;20029;-88